Allison, Illinois
Current Conditions -  °F | °C
As of 12:53 PM on Friday 24 Oct 2014 (Local Time) from KLWV Reporting Station
Clear Clear  
Wind Chill: 68°   Ceiling: Unl
Heat Index: 68°   Visibility: 7mi
Dew Point: 52°   Wind: 7mph
Humidity: 56%   Direction: NA
Pressure: 30.08"   Gusts: NA
Location:  38.7501°N, 87.6141°W
Report Text: KLWV 241753Z AUTO VRB06KT 7SM CLR 20/11 A3008 RMK AO2 SLP185 T02000111 10200 20106 58016
Loading
Personal Weather Stations






























Interactive Weather Map
Tropical Storm Tracking
New forecast layout! Learn more

10-Day Weather Forecast

Advertisements
Track Severe Weather on mobile